Time;durP1;ratioP1;P1;durP2;ratioP2;P2;SDS_P1;SDS_P2;PMS_P1;PMS_P2;Temp;Humidity;BMP_temperature;BMP_pressure;BME280_temperature;BME280_humidity;BME280_pressure;Samples;Min_cycle;Max_cycle;Signal;HPM_P1;HPM_P2
2023/01/20 00:01:26;;;;;;;;;;;;;;;4.49;59.53;100027.25;4953682;28;6986;-73
2023/01/20 00:03:54;;;;;;;;;;;;;;;4.52;59.05;100035.94;4967537;28;6800;-73
2023/01/20 00:06:21;;;;;;;;;;;;;;;4.57;59.76;100036.25;4985330;28;6993;-73
2023/01/20 00:08:51;;;;;;;;;;;;;;;4.65;59.05;100044.38;4995793;28;6973;-73
2023/01/20 00:11:17;;;;;;;;;;;;;;;4.73;59.71;100038.13;4972868;28;7141;-73
2023/01/20 00:13:42;;;;;;;;;;;;;;;4.83;59.49;100039.63;4967294;28;7257;-73
2023/01/20 00:16:11;;;;;;;;;;;;;;;4.92;59.78;100045.31;4984881;28;7232;-73
2023/01/20 00:18:38;;;;;;;;;;;;;;;4.99;59.43;100044.94;4967689;28;6967;-73
2023/01/20 00:21:12;;;;;;;;;;;;;;;5.06;59.36;100042.75;4980858;28;6820;-72
2023/01/20 00:23:39;;;;;;;;;;;;;;;5.10;59.60;100032.91;4985271;28;6987;-73
2023/01/20 00:26:11;;;;;;;;;;;;;;;5.14;59.01;100042.50;4966689;28;6868;-73
2023/01/20 00:28:37;;;;;;;;;;;;;;;5.18;59.05;100041.03;4967371;28;7201;-73
2023/01/20 00:31:30;;;;;;;;;;;;;;;5.19;59.51;100040.25;4980214;28;6800;-73
2023/01/20 00:33:59;;;;;;;;;;;;;;;5.20;58.98;100048.72;4965039;28;6804;-72
2023/01/20 00:36:28;;;;;;;;;;;;;;;5.23;58.89;100037.09;4966953;28;8521;-73
2023/01/20 00:38:53;;;;;;;;;;;;;;;5.27;59.02;100054.31;4966699;28;6799;-73
2023/01/20 00:41:19;;;;;;;;;;;;;;;5.31;58.78;100050.31;4970299;28;6788;-72
2023/01/20 00:43:45;;;;;;;;;;;;;;;5.36;59.03;100048.03;4975493;28;7259;-73
2023/01/20 00:46:11;;;;;;;;;;;;;;;5.41;59.10;100052.66;4978514;28;6984;-73
2023/01/20 00:48:37;;;;;;;;;;;;;;;5.46;59.30;100052.06;4965857;28;6792;-73
2023/01/20 00:51:05;;;;;;;;;;;;;;;5.51;58.88;100055.78;4992912;28;6800;-73
2023/01/20 00:57:12;;;;;;;;;;;;;;;5.56;59.22;100068.00;4977756;28;6749;-73
2023/01/20 00:59:37;;;;;;;;;;;;;;;5.61;58.88;100062.31;4966876;28;7256;-72
2023/01/20 01:02:03;;;;;;;;;;;;;;;5.66;59.06;100068.56;4999589;28;7066;-73
2023/01/20 01:04:29;;;;;;;;;;;;;;;5.69;59.00;100069.63;4990336;28;6970;-73
2023/01/20 01:06:55;;;;;;;;;;;;;;;5.71;58.76;100067.19;4980140;28;6784;-73
2023/01/20 01:09:20;;;;;;;;;;;;;;;5.74;58.88;100061.41;4978146;28;7901;-73
2023/01/20 01:11:47;;;;;;;;;;;;;;;5.75;58.52;100063.16;4966168;28;6776;-73
2023/01/20 01:14:13;;;;;;;;;;;;;;;5.75;58.79;100074.22;4965436;28;7255;-73
2023/01/20 01:16:39;;;;;;;;;;;;;;;5.75;58.61;100076.78;4979364;28;6784;-73
2023/01/20 01:19:05;;;;;;;;;;;;;;;5.76;59.01;100076.00;4972535;28;6824;-73
2023/01/20 01:21:30;;;;;;;;;;;;;;;5.76;58.65;100080.19;4957349;28;6951;-73
2023/01/20 01:23:56;;;;;;;;;;;;;;;5.75;58.32;100068.25;4955373;28;6999;-73
2023/01/20 01:26:22;;;;;;;;;;;;;;;5.72;58.39;100080.78;4957301;28;6766;-72
2023/01/20 01:28:49;;;;;;;;;;;;;;;5.68;58.52;100083.13;4964500;28;6847;-72
2023/01/20 01:31:17;;;;;;;;;;;;;;;5.62;58.17;100085.31;4981760;28;6820;-72
2023/01/20 01:33:44;;;;;;;;;;;;;;;5.52;57.69;100093.13;4996904;28;7231;-72
2023/01/20 01:36:15;;;;;;;;;;;;;;;5.43;58.00;100095.94;4987470;28;6784;-72
2023/01/20 01:38:42;;;;;;;;;;;;;;;5.33;58.13;100094.50;4969795;28;6998;-73
2023/01/20 01:41:11;;;;;;;;;;;;;;;5.24;57.69;100099.84;4981499;28;7184;-73
2023/01/20 01:43:38;;;;;;;;;;;;;;;5.18;57.76;100098.56;4991607;28;6971;-72
2023/01/20 01:46:04;;;;;;;;;;;;;;;5.11;58.29;100103.25;4962949;28;7066;-72
2023/01/20 01:48:44;;;;;;;;;;;;;;;5.05;57.91;100110.50;4980842;28;7025;-72
2023/01/20 01:51:24;;;;;;;;;;;;;;;5.00;58.37;100106.75;4992771;28;6962;-73
2023/01/20 01:54:01;;;;;;;;;;;;;;;4.97;58.08;100104.91;4980180;28;7656;-72
2023/01/20 01:56:30;;;;;;;;;;;;;;;4.95;58.23;100110.66;4991108;28;6983;-73
2023/01/20 01:59:01;;;;;;;;;;;;;;;4.94;58.44;100114.00;4967355;28;6864;-72
2023/01/20 02:01:29;;;;;;;;;;;;;;;4.92;58.00;100113.00;4961012;28;7259;-73
2023/01/20 02:04:09;;;;;;;;;;;;;;;4.90;57.98;100112.00;4976734;28;6811;-72
2023/01/20 02:06:41;;;;;;;;;;;;;;;4.87;59.01;100122.84;4966477;28;6820;-72
2023/01/20 02:09:07;;;;;;;;;;;;;;;4.89;58.43;100122.94;4982784;28;7538;-73
2023/01/20 02:11:47;;;;;;;;;;;;;;;4.89;58.59;100122.94;4979630;28;6800;-73
2023/01/20 02:14:16;;;;;;;;;;;;;;;4.91;58.65;100124.81;4981643;28;7320;-73
2023/01/20 02:17:11;;;;;;;;;;;;;;;4.94;58.64;100119.94;4965020;28;6796;-72
2023/01/20 02:20:17;;;;;;;;;;;;;;;4.98;59.04;100126.09;4989401;28;6836;-73
2023/01/20 02:23:13;;;;;;;;;;;;;;;4.99;58.70;100125.31;4976831;28;7065;-73
2023/01/20 02:26:00;;;;;;;;;;;;;;;5.06;58.64;100126.59;4992538;28;6915;-73
2023/01/20 02:28:57;;;;;;;;;;;;;;;5.12;58.78;100129.56;4979646;28;6812;-73
2023/01/20 02:31:50;;;;;;;;;;;;;;;5.17;58.88;100120.59;4978343;28;7100;-73
2023/01/20 02:34:33;;;;;;;;;;;;;;;5.23;59.02;100127.72;4974420;28;6824;-73
2023/01/20 02:37:18;;;;;;;;;;;;;;;5.27;59.00;100124.59;4989091;28;7066;-73
2023/01/20 02:39:50;;;;;;;;;;;;;;;5.30;58.77;100129.84;4978155;28;6816;-73
2023/01/20 02:42:26;;;;;;;;;;;;;;;5.31;58.66;100118.94;4958911;28;7237;-73
2023/01/20 02:45:10;;;;;;;;;;;;;;;5.33;58.23;100119.91;4962822;28;6816;-72
2023/01/20 02:47:44;;;;;;;;;;;;;;;5.36;58.49;100120.09;4975258;28;6808;-73
2023/01/20 02:50:52;;;;;;;;;;;;;;;5.40;58.97;100121.19;4975346;28;7013;-73
2023/01/20 02:53:24;;;;;;;;;;;;;;;5.46;58.76;100128.31;4969126;28;7021;-73
2023/01/20 02:55:54;;;;;;;;;;;;;;;5.48;58.95;100119.13;4989078;28;7393;-72
2023/01/20 02:58:46;;;;;;;;;;;;;;;5.52;58.64;100127.03;4992063;28;6973;-73
2023/01/20 03:01:21;;;;;;;;;;;;;;;5.50;58.39;100127.72;4963704;28;7310;-73
2023/01/20 03:03:54;;;;;;;;;;;;;;;5.48;58.25;100129.28;4966854;28;6986;-73
2023/01/20 03:06:26;;;;;;;;;;;;;;;5.42;57.71;100128.13;4961521;28;6804;-73
2023/01/20 03:08:56;;;;;;;;;;;;;;;5.36;57.80;100129.38;4967607;28;6796;-73
2023/01/20 03:11:22;;;;;;;;;;;;;;;5.29;57.92;100143.34;4996393;28;8290;-73
2023/01/20 03:13:58;;;;;;;;;;;;;;;5.21;57.71;100139.41;4962222;28;6991;-73
2023/01/20 03:16:27;;;;;;;;;;;;;;;5.13;57.79;100139.81;4973132;28;6852;-73
2023/01/20 03:18:54;;;;;;;;;;;;;;;5.06;58.07;100132.56;4993886;28;6803;-73
2023/01/20 03:21:20;;;;;;;;;;;;;;;5.04;58.29;100144.31;4992564;28;6972;-73
2023/01/20 03:23:59;;;;;;;;;;;;;;;5.00;58.51;100143.22;4979801;28;6780;-73
2023/01/20 03:26:24;;;;;;;;;;;;;;;5.00;58.62;100142.31;4973280;28;7031;-73
2023/01/20 03:28:50;;;;;;;;;;;;;;;4.98;58.39;100141.34;4993246;28;7438;-73
2023/01/20 03:31:29;;;;;;;;;;;;;;;4.98;58.60;100146.44;4981130;28;7326;-73
2023/01/20 03:34:00;;;;;;;;;;;;;;;4.94;57.58;100145.34;4994057;28;6820;-73
2023/01/20 03:36:30;;;;;;;;;;;;;;;4.91;57.35;100154.41;4967629;28;6793;-73
2023/01/20 03:38:58;;;;;;;;;;;;;;;4.89;57.92;100166.13;4970030;28;7996;-73
2023/01/20 03:41:54;;;;;;;;;;;;;;;4.93;58.24;100168.97;4996069;28;6811;-73
2023/01/20 03:44:59;;;;;;;;;;;;;;;4.99;58.77;100160.88;4971558;28;7157;-73
2023/01/20 03:47:47;;;;;;;;;;;;;;;5.06;58.83;100163.06;4980163;28;8454;-73
2023/01/20 03:50:31;;;;;;;;;;;;;;;5.13;58.79;100162.69;4981084;28;6816;-73
2023/01/20 03:53:24;;;;;;;;;;;;;;;5.24;59.23;100162.50;4966529;28;6807;-73
2023/01/20 03:56:14;;;;;;;;;;;;;;;5.30;59.31;100162.91;4973254;28;7271;-74
2023/01/20 03:58:47;;;;;;;;;;;;;;;5.35;59.15;100156.47;4976446;28;7004;-74
2023/01/20 04:01:16;;;;;;;;;;;;;;;5.42;58.58;100165.38;4983211;28;6997;-73
2023/01/20 04:03:46;;;;;;;;;;;;;;;5.47;58.51;100163.13;4993494;28;6868;-74
2023/01/20 04:06:16;;;;;;;;;;;;;;;5.51;59.00;100163.41;4971799;28;6788;-73
2023/01/20 04:08:58;;;;;;;;;;;;;;;5.54;58.52;100157.66;4994012;28;7190;-74
2023/01/20 04:11:24;;;;;;;;;;;;;;;5.58;58.36;100151.97;4989880;28;7225;-74
2023/01/20 04:13:50;;;;;;;;;;;;;;;5.61;58.38;100157.28;4977751;28;6847;-73
2023/01/20 04:16:19;;;;;;;;;;;;;;;5.63;58.27;100160.78;4980302;28;6787;-74
2023/01/20 04:18:49;;;;;;;;;;;;;;;5.63;58.62;100155.72;4976961;28;7015;-74
2023/01/20 04:21:39;;;;;;;;;;;;;;;5.65;58.42;100163.41;4977409;28;6855;-74
2023/01/20 04:24:36;;;;;;;;;;;;;;;5.67;58.65;100169.50;4964484;28;7052;-74
2023/01/20 04:27:02;;;;;;;;;;;;;;;5.66;58.70;100168.59;4970559;28;6804;-73
2023/01/20 04:29:28;;;;;;;;;;;;;;;5.69;58.41;100171.34;4973365;28;6963;-73
2023/01/20 04:32:01;;;;;;;;;;;;;;;5.72;58.47;100169.78;4974469;28;8440;-74
2023/01/20 04:34:27;;;;;;;;;;;;;;;5.72;58.28;100170.66;4965537;28;6788;-73
2023/01/20 04:36:53;;;;;;;;;;;;;;;5.73;58.58;100172.41;4978760;28;6995;-73
2023/01/20 04:39:19;;;;;;;;;;;;;;;5.72;58.36;100170.66;4980061;28;6783;-75
2023/01/20 04:41:46;;;;;;;;;;;;;;;5.73;58.15;100169.88;4971858;28;6780;-73
2023/01/20 04:44:12;;;;;;;;;;;;;;;5.72;58.15;100178.28;4974318;28;8869;-75
2023/01/20 04:46:37;;;;;;;;;;;;;;;5.72;58.13;100169.78;4983418;28;7391;-73
2023/01/20 04:49:03;;;;;;;;;;;;;;;5.71;58.16;100179.06;4973955;28;7405;-73
2023/01/20 04:51:30;;;;;;;;;;;;;;;5.70;58.37;100185.84;4957606;28;6856;-73
2023/01/20 04:53:57;;;;;;;;;;;;;;;5.69;57.91;100183.19;4974416;28;7041;-73
2023/01/20 04:56:23;;;;;;;;;;;;;;;5.68;58.40;100179.75;4978073;28;6879;-73
2023/01/20 04:58:48;;;;;;;;;;;;;;;5.66;58.08;100188.94;4994422;28;7145;-74
2023/01/20 05:01:14;;;;;;;;;;;;;;;5.66;58.00;100190.63;4988613;28;7099;-73
2023/01/20 05:03:40;;;;;;;;;;;;;;;5.66;58.45;100185.53;4948182;28;7343;-74
2023/01/20 05:06:06;;;;;;;;;;;;;;;5.65;58.54;100186.28;4988725;28;6772;-74
2023/01/20 05:08:32;;;;;;;;;;;;;;;5.67;58.42;100189.84;4987379;28;7492;-73
2023/01/20 05:10:57;;;;;;;;;;;;;;;5.65;57.80;100184.66;4994679;28;7066;-73
2023/01/20 05:13:23;;;;;;;;;;;;;;;5.68;58.11;100196.69;4970920;28;7202;-73
2023/01/20 05:15:49;;;;;;;;;;;;;;;5.68;58.03;100192.47;4963704;28;6792;-73
2023/01/20 05:18:14;;;;;;;;;;;;;;;5.68;58.18;100197.56;4965657;28;6776;-74
2023/01/20 05:20:42;;;;;;;;;;;;;;;5.66;57.88;100196.56;4975900;28;7847;-73
2023/01/20 05:23:08;;;;;;;;;;;;;;;5.64;57.78;100200.69;4977254;28;6812;-74
2023/01/20 05:25:34;;;;;;;;;;;;;;;5.63;58.38;100201.47;4978761;28;7186;-73
2023/01/20 05:27:59;;;;;;;;;;;;;;;5.62;57.98;100203.91;4956457;28;7083;-73
2023/01/20 05:30:25;;;;;;;;;;;;;;;5.60;58.38;100205.47;4964173;28;7019;-73
2023/01/20 05:32:51;;;;;;;;;;;;;;;5.59;57.74;100203.72;4979347;28;7451;-73
2023/01/20 05:35:16;;;;;;;;;;;;;;;5.58;57.95;100201.97;4991230;28;7346;-73
2023/01/20 05:37:43;;;;;;;;;;;;;;;5.53;57.59;100202.53;4963960;28;6780;-73
2023/01/20 05:40:10;;;;;;;;;;;;;;;5.50;57.93;100203.97;4964376;28;6859;-73
2023/01/20 05:42:35;;;;;;;;;;;;;;;5.47;58.18;100211.41;4999477;28;7345;-73
2023/01/20 05:45:01;;;;;;;;;;;;;;;5.45;58.18;100215.53;4962156;28;7203;-73
2023/01/20 05:47:27;;;;;;;;;;;;;;;5.47;57.78;100217.41;4959695;28;7487;-74
2023/01/20 05:49:53;;;;;;;;;;;;;;;5.47;58.09;100219.94;4981504;28;6800;-73
2023/01/20 05:52:18;;;;;;;;;;;;;;;5.49;58.19;100228.53;4947681;28;7009;-73
2023/01/20 05:54:44;;;;;;;;;;;;;;;5.54;58.08;100233.94;4959082;28;7019;-73
2023/01/20 05:57:10;;;;;;;;;;;;;;;5.55;58.44;100236.59;4980827;28;7193;-73
2023/01/20 05:59:36;;;;;;;;;;;;;;;5.56;58.26;100237.44;4964090;28;9692;-74
2023/01/20 06:02:01;;;;;;;;;;;;;;;5.57;58.00;100244.28;4978641;28;7241;-73
2023/01/20 06:04:27;;;;;;;;;;;;;;;5.57;57.80;100246.84;4975174;28;6776;-74
2023/01/20 06:06:53;;;;;;;;;;;;;;;5.58;57.84;100248.59;4995051;28;6844;-74
2023/01/20 06:09:18;;;;;;;;;;;;;;;5.58;58.32;100243.50;4977107;28;6910;-73
2023/01/20 06:11:44;;;;;;;;;;;;;;;5.58;57.81;100243.50;4977024;28;6980;-74
2023/01/20 06:14:10;;;;;;;;;;;;;;;5.57;58.27;100251.91;4979425;28;6788;-73
2023/01/20 06:16:35;;;;;;;;;;;;;;;5.59;57.81;100249.50;4974537;28;6772;-73
2023/01/20 06:19:01;;;;;;;;;;;;;;;5.56;58.04;100247.63;4978006;28;8214;-74
2023/01/20 06:21:26;;;;;;;;;;;;;;;5.56;57.10;100255.25;4978518;28;6784;-73
2023/01/20 06:23:53;;;;;;;;;;;;;;;5.53;57.62;100255.91;4976182;28;7207;-73
2023/01/20 06:26:18;;;;;;;;;;;;;;;5.52;57.40;100256.69;4981096;28;7064;-73
2023/01/20 06:28:44;;;;;;;;;;;;;;;5.51;57.81;100254.94;4979259;28;6783;-73
2023/01/20 06:31:15;;;;;;;;;;;;;;;5.49;57.82;100256.50;4990771;28;10441;-74
2023/01/20 06:33:42;;;;;;;;;;;;;;;5.45;57.81;100254.53;4966031;28;6796;-73
2023/01/20 06:36:12;;;;;;;;;;;;;;;5.43;57.43;100248.47;4968333;28;6852;-74
2023/01/20 06:38:38;;;;;;;;;;;;;;;5.43;57.76;100256.09;4963531;28;7300;-73
2023/01/20 06:41:09;;;;;;;;;;;;;;;5.43;57.70;100253.53;4990215;28;7966;-74
2023/01/20 06:43:38;;;;;;;;;;;;;;;5.41;57.35;100261.09;4978744;28;7955;-74
2023/01/20 06:46:07;;;;;;;;;;;;;;;5.39;57.81;100255.00;4995246;28;7294;-73
2023/01/20 06:48:33;;;;;;;;;;;;;;;5.34;57.45;100252.94;4952314;28;6984;-73
2023/01/20 06:51:04;;;;;;;;;;;;;;;5.30;57.27;100258.59;4966923;28;6792;-74
2023/01/20 06:53:30;;;;;;;;;;;;;;;5.24;57.53;100264.16;4980325;28;6832;-74
2023/01/20 06:55:58;;;;;;;;;;;;;;;5.19;57.19;100257.88;4966042;28;6779;-74
2023/01/20 06:58:27;;;;;;;;;;;;;;;5.15;58.13;100261.88;4979512;28;7261;-74
2023/01/20 07:00:54;;;;;;;;;;;;;;;5.14;57.85;100265.19;4989519;28;7466;-73
2023/01/20 07:03:20;;;;;;;;;;;;;;;5.13;57.80;100273.59;4993703;28;6847;-74
2023/01/20 07:06:12;;;;;;;;;;;;;;;5.10;58.04;100274.25;4965002;28;6784;-73
2023/01/20 07:08:38;;;;;;;;;;;;;;;5.08;57.97;100265.66;4995788;28;7402;-73
2023/01/20 07:11:04;;;;;;;;;;;;;;;5.07;57.57;100266.44;4978211;28;7045;-73
2023/01/20 07:13:29;;;;;;;;;;;;;;;5.06;57.59;100281.56;4979834;28;6776;-74
2023/01/20 07:15:55;;;;;;;;;;;;;;;5.07;57.84;100284.22;4967998;28;6816;-74
2023/01/20 07:18:21;;;;;;;;;;;;;;;5.09;58.26;100280.13;4979495;28;6779;-73
2023/01/20 07:20:46;;;;;;;;;;;;;;;5.10;57.99;100289.50;4965249;28;7022;-73
2023/01/20 07:23:12;;;;;;;;;;;;;;;5.06;57.46;100297.72;4979463;28;7239;-73
2023/01/20 07:25:38;;;;;;;;;;;;;;;5.06;57.81;100300.25;4995570;28;6856;-75
2023/01/20 07:28:04;;;;;;;;;;;;;;;5.05;57.64;100310.28;4961172;28;7404;-75
2023/01/20 07:30:30;;;;;;;;;;;;;;;5.06;57.96;100318.03;4965730;28;7266;-75
2023/01/20 07:32:55;;;;;;;;;;;;;;;5.06;57.69;100315.50;4966777;28;7456;-75
2023/01/20 07:35:21;;;;;;;;;;;;;;;5.08;57.85;100320.69;4969534;28;7197;-74
2023/01/20 07:37:47;;;;;;;;;;;;;;;5.11;58.25;100324.28;4980585;28;7591;-75
2023/01/20 07:40:12;;;;;;;;;;;;;;;5.14;58.04;100327.06;4982421;28;7182;-75
2023/01/20 07:42:38;;;;;;;;;;;;;;;5.20;58.26;100329.13;4981364;28;6848;-75
2023/01/20 07:45:04;;;;;;;;;;;;;;;5.26;58.40;100333.75;4992871;28;6764;-75
2023/01/20 07:47:30;;;;;;;;;;;;;;;5.34;58.01;100330.09;4979549;28;7844;-75
2023/01/20 07:49:55;;;;;;;;;;;;;;;5.41;58.48;100328.84;4990307;28;6795;-75
2023/01/20 07:52:21;;;;;;;;;;;;;;;5.45;58.52;100328.25;4974333;28;8361;-75
2023/01/20 07:54:47;;;;;;;;;;;;;;;5.48;57.80;100328.47;4965966;28;7203;-74
2023/01/20 07:57:12;;;;;;;;;;;;;;;5.49;57.82;100324.25;4961610;28;6925;-73
2023/01/20 07:59:38;;;;;;;;;;;;;;;5.51;58.06;100326.13;4979687;28;7386;-72
2023/01/20 08:02:04;;;;;;;;;;;;;;;5.49;57.98;100324.25;4975427;28;7014;-73
2023/01/20 08:04:29;;;;;;;;;;;;;;;5.47;57.61;100316.53;4966245;28;8079;-72
2023/01/20 08:06:55;;;;;;;;;;;;;;;5.47;58.05;100324.16;4994023;28;6776;-73
2023/01/20 08:09:20;;;;;;;;;;;;;;;5.48;57.81;100325.03;4981415;28;7260;-73
2023/01/20 08:11:46;;;;;;;;;;;;;;;5.48;57.38;100319.94;4979095;28;6772;-75
2023/01/20 08:14:12;;;;;;;;;;;;;;;5.48;57.60;100333.56;4990761;28;8728;-75
2023/01/20 08:16:37;;;;;;;;;;;;;;;5.47;57.82;100336.88;4964625;28;7067;-75
2023/01/20 08:19:03;;;;;;;;;;;;;;;5.47;58.06;100347.06;4976121;28;6768;-73
2023/01/20 08:21:31;;;;;;;;;;;;;;;5.49;57.55;100350.56;4959653;28;7173;-73
2023/01/20 08:24:00;;;;;;;;;;;;;;;5.50;57.71;100357.41;4968108;28;7278;-73
2023/01/20 08:26:28;;;;;;;;;;;;;;;5.52;57.35;100360.94;4977120;28;7223;-73
2023/01/20 08:28:55;;;;;;;;;;;;;;;5.55;57.78;100352.66;4966941;28;7082;-73
2023/01/20 08:31:23;;;;;;;;;;;;;;;5.56;57.50;100355.31;4985532;28;7191;-73
2023/01/20 08:33:54;;;;;;;;;;;;;;;5.60;57.49;100353.84;4977184;28;6831;-73
2023/01/20 08:36:30;;;;;;;;;;;;;;;5.63;57.86;100356.59;4966149;28;7274;-73
2023/01/20 08:38:58;;;;;;;;;;;;;;;5.65;57.54;100366.84;4986640;28;7524;-73
2023/01/20 08:41:29;;;;;;;;;;;;;;;5.65;57.46;100366.84;4993657;28;6804;-73
2023/01/20 08:43:58;;;;;;;;;;;;;;;5.67;57.77;100365.31;4964310;28;6808;-73
2023/01/20 08:46:24;;;;;;;;;;;;;;;5.69;57.68;100362.06;4991870;28;6784;-73
2023/01/20 08:48:51;;;;;;;;;;;;;;;5.72;57.58;100363.06;4964258;28;6784;-73
2023/01/20 08:51:25;;;;;;;;;;;;;;;5.72;57.78;100363.06;4966280;28;6780;-73
2023/01/20 08:53:50;;;;;;;;;;;;;;;5.73;57.59;100364.84;4962788;28;6788;-73
2023/01/20 08:56:17;;;;;;;;;;;;;;;5.75;57.95;100364.16;4968432;28;7119;-73
2023/01/20 08:58:44;;;;;;;;;;;;;;;5.76;57.58;100359.94;4961622;28;7368;-73
2023/01/20 09:01:22;;;;;;;;;;;;;;;5.77;57.72;100366.78;4996383;28;6813;-73
2023/01/20 09:03:49;;;;;;;;;;;;;;;5.77;57.31;100361.69;4993405;28;7270;-73
2023/01/20 09:06:15;;;;;;;;;;;;;;;5.79;57.62;100365.22;4977016;28;7055;-73
2023/01/20 09:08:41;;;;;;;;;;;;;;;5.78;57.59;100358.38;4980146;28;6804;-73
2023/01/20 09:11:11;;;;;;;;;;;;;;;5.78;57.80;100363.47;4966477;28;6792;-73
2023/01/20 09:13:37;;;;;;;;;;;;;;;5.78;57.91;100358.38;4966769;28;6796;-73
2023/01/20 09:16:04;;;;;;;;;;;;;;;5.78;57.64;100366.91;4972119;28;7424;-73
2023/01/20 09:18:34;;;;;;;;;;;;;;;5.80;57.67;100367.00;4964068;28;7300;-73
2023/01/20 09:21:05;;;;;;;;;;;;;;;5.80;57.42;100367.88;4961921;28;6847;-73
2023/01/20 09:23:35;;;;;;;;;;;;;;;5.82;57.73;100370.53;4966756;28;7222;-73
2023/01/20 09:26:04;;;;;;;;;;;;;;;5.82;57.80;100368.00;4980223;28;7210;-73
2023/01/20 09:28:30;;;;;;;;;;;;;;;5.83;57.66;100369.75;4976515;28;6812;-73
2023/01/20 09:31:08;;;;;;;;;;;;;;;5.83;57.81;100369.75;4962478;28;7235;-74
2023/01/20 09:33:37;;;;;;;;;;;;;;;5.85;57.59;100365.66;4993348;28;6934;-73
2023/01/20 09:36:07;;;;;;;;;;;;;;;5.82;57.78;100365.44;4979168;28;6987;-73
2023/01/20 09:44:17;;;;;;;;;;;;;;;5.82;57.53;100371.41;4980446;28;6792;-73
2023/01/20 09:47:21;;;;;;;;;;;;;;;5.80;57.42;100367.88;4978205;28;6784;-73
2023/01/20 09:53:16;;;;;;;;;;;;;;;5.62;57.49;100376.81;4964600;28;6777;-73
2023/01/20 09:55:56;;;;;;;;;;;;;;;5.52;57.27;100386.38;4977901;28;7992;-73
2023/01/20 09:58:35;;;;;;;;;;;;;;;5.44;57.77;100387.50;4948889;28;8591;-73
2023/01/20 10:01:36;;;;;;;;;;;;;;;5.36;57.50;100378.47;4962543;28;7260;-73
2023/01/20 10:04:04;;;;;;;;;;;;;;;5.30;58.51;100388.22;4973518;28;6832;-73
2023/01/20 10:06:40;;;;;;;;;;;;;;;5.25;58.27;100382.81;4963269;28;6872;-73
2023/01/20 10:09:23;;;;;;;;;;;;;;;5.22;58.32;100377.53;4980202;28;6998;-73
2023/01/20 10:12:12;;;;;;;;;;;;;;;5.17;58.41;100381.41;4972676;28;6915;-73
2023/01/20 10:14:45;;;;;;;;;;;;;;;5.12;58.97;100381.97;4968409;28;6808;-73
2023/01/20 10:17:34;;;;;;;;;;;;;;;5.10;59.10;100369.94;4981059;28;6800;-73
2023/01/20 10:20:54;;;;;;;;;;;;;;;5.03;58.63;100368.63;4980940;28;7018;-73
2023/01/20 10:23:57;;;;;;;;;;;;;;;4.98;59.10;100362.34;4950841;28;6898;-72
2023/01/20 10:26:33;;;;;;;;;;;;;;;4.93;59.51;100369.63;4982830;28;6812;-72
2023/01/20 10:29:02;;;;;;;;;;;;;;;4.93;59.55;100367.09;4960098;28;7777;-72
2023/01/20 10:31:35;;;;;;;;;;;;;;;4.94;59.83;100373.06;4982240;28;7087;-73
2023/01/20 10:34:14;;;;;;;;;;;;;;;4.93;59.72;100367.09;4965646;28;7121;-72
2023/01/20 10:36:55;;;;;;;;;;;;;;;4.92;59.92;100360.25;4954486;28;7258;-72
2023/01/20 10:39:38;;;;;;;;;;;;;;;4.94;59.73;100373.94;4985144;28;6947;-72
2023/01/20 10:42:12;;;;;;;;;;;;;;;4.93;59.34;100372.19;4977858;28;8497;-72
2023/01/20 10:44:38;;;;;;;;;;;;;;;4.93;60.23;100372.19;4966623;28;6856;-72
2023/01/20 10:47:40;;;;;;;;;;;;;;;4.95;60.00;100365.53;4973945;28;6983;-72
2023/01/20 10:50:26;;;;;;;;;;;;;;;4.93;59.87;100366.22;4977331;28;6888;-72
2023/01/20 10:53:13;;;;;;;;;;;;;;;4.94;59.73;100360.38;4967995;28;7088;-72
2023/01/20 10:55:56;;;;;;;;;;;;;;;4.96;60.24;100371.53;4978868;28;7279;-72
2023/01/20 10:58:28;;;;;;;;;;;;;;;4.99;59.98;100353.94;4969457;28;7044;-72
2023/01/20 11:01:00;;;;;;;;;;;;;;;5.02;59.94;100356.69;4967168;28;7006;-72
2023/01/20 11:03:34;;;;;;;;;;;;;;;5.06;60.33;100358.69;4993333;28;6985;-72
2023/01/20 11:06:03;;;;;;;;;;;;;;;5.07;59.73;100360.44;4969025;28;7089;-72
2023/01/20 11:08:29;;;;;;;;;;;;;;;5.07;60.03;100357.91;4983157;28;8534;-73
2023/01/20 11:10:59;;;;;;;;;;;;;;;5.10;59.96;100359.78;4972638;28;6845;-72
2023/01/20 11:13:25;;;;;;;;;;;;;;;5.10;60.17;100360.63;4965464;28;6807;-72
2023/01/20 11:16:02;;;;;;;;;;;;;;;5.10;60.10;100362.31;4967242;28;6991;-73
2023/01/20 11:18:31;;;;;;;;;;;;;;;5.11;59.83;100362.41;4969222;28;7057;-73
2023/01/20 11:21:11;;;;;;;;;;;;;;;5.13;60.16;100363.41;4981084;28;6804;-73
2023/01/20 11:23:54;;;;;;;;;;;;;;;5.14;60.17;100362.63;4982674;28;6808;-73
2023/01/20 11:26:34;;;;;;;;;;;;;;;5.16;60.44;100364.41;4987882;28;6994;-73
2023/01/20 11:29:26;;;;;;;;;;;;;;;5.16;59.65;100370.34;4995662;28;6804;-73
2023/01/20 11:31:55;;;;;;;;;;;;;;;5.17;60.41;100369.59;4972412;28;6832;-73
2023/01/20 11:34:20;;;;;;;;;;;;;;;5.17;60.27;100372.13;4978843;28;7126;-73
2023/01/20 11:36:46;;;;;;;;;;;;;;;5.19;60.15;100372.22;4978646;28;6919;-73
2023/01/20 11:39:29;;;;;;;;;;;;;;;5.21;59.88;100366.47;4970782;28;6788;-73
2023/01/20 11:42:20;;;;;;;;;;;;;;;5.22;60.48;100364.84;4978130;28;6795;-73
2023/01/20 11:44:52;;;;;;;;;;;;;;;5.23;60.52;100356.44;4978095;28;6994;-73
2023/01/20 11:47:25;;;;;;;;;;;;;;;5.25;60.03;100352.31;4990588;28;6816;-73
2023/01/20 11:50:02;;;;;;;;;;;;;;;5.30;60.17;100347.56;4978564;28;6884;-73
2023/01/20 11:52:30;;;;;;;;;;;;;;;5.32;59.73;100346.00;4973028;28;8938;-73
2023/01/20 11:55:17;;;;;;;;;;;;;;;5.32;60.29;100343.47;4972308;28;6796;-73
2023/01/20 11:58:02;;;;;;;;;;;;;;;5.31;59.95;100344.25;4978783;28;6824;-73
2023/01/20 12:00:48;;;;;;;;;;;;;;;5.31;60.56;100342.59;4979577;28;6824;-72
2023/01/20 12:04:22;;;;;;;;;;;;;;;5.37;60.48;100342.13;4980270;28;6804;-73
2023/01/20 12:07:02;;;;;;;;;;;;;;;5.38;60.55;100337.13;4935976;28;7195;-74
2023/01/20 12:09:36;;;;;;;;;;;;;;;5.45;60.19;100337.56;4962314;28;6808;-74
2023/01/20 12:12:31;;;;;;;;;;;;;;;5.46;60.18;100332.59;4974514;28;7109;-74
2023/01/20 12:15:08;;;;;;;;;;;;;;;5.45;60.22;100329.94;4980479;28;6820;-74
2023/01/20 12:17:47;;;;;;;;;;;;;;;5.46;60.07;100324.06;4976603;28;7151;-74
2023/01/20 12:20:36;;;;;;;;;;;;;;;5.49;59.88;100330.22;4973093;28;9214;-74
2023/01/20 12:23:54;;;;;;;;;;;;;;;5.52;60.28;100324.47;4977794;28;9937;-74
2023/01/20 12:26:24;;;;;;;;;;;;;;;5.54;60.25;100333.09;4978644;28;7188;-76
2023/01/20 12:29:43;;;;;;;;;;;;;;;5.60;60.17;100328.44;4968991;28;8081;-76
2023/01/20 12:32:10;;;;;;;;;;;;;;;5.63;59.95;100328.63;4981293;28;6828;-76
2023/01/20 12:34:37;;;;;;;;;;;;;;;5.68;59.69;100322.16;4966379;28;7244;-77
2023/01/20 12:37:21;;;;;;;;;;;;;;;5.75;60.32;100326.00;4991829;28;7138;-77
2023/01/20 12:40:06;;;;;;;;;;;;;;;5.82;59.75;100322.22;4962829;28;7845;-77
2023/01/20 12:43:09;;;;;;;;;;;;;;;5.91;59.61;100317.72;4965199;28;6811;-76
2023/01/20 12:46:15;;;;;;;;;;;;;;;5.95;59.62;100317.13;4978696;28;6804;-77
2023/01/20 12:49:34;;;;;;;;;;;;;;;5.95;59.23;100321.34;4975875;28;6808;-77
2023/01/20 12:52:42;;;;;;;;;;;;;;;5.96;59.22;100318.88;4969231;28;7373;-77
2023/01/20 12:55:36;;;;;;;;;;;;;;;6.00;59.19;100314.03;5020644;28;6846;-77
2023/01/20 12:58:56;;;;;;;;;;;;;;;6.06;59.43;100317.88;5001064;28;6999;-77
2023/01/20 13:02:01;;;;;;;;;;;;;;;6.09;59.17;100314.66;5001978;28;8193;-77
2023/01/20 13:04:35;;;;;;;;;;;;;;;6.14;59.42;100313.28;5030513;28;8745;-78
2023/01/20 13:08:23;;;;;;;;;;;;;;;6.19;59.02;100318.66;4997136;28;7812;-77
2023/01/20 13:10:58;;;;;;;;;;;;;;;6.22;59.26;100324.81;4956581;28;7277;-77
2023/01/20 13:13:39;;;;;;;;;;;;;;;6.31;59.00;100332.16;5025593;28;6799;-77
2023/01/20 13:16:30;;;;;;;;;;;;;;;6.37;58.83;100324.03;4997920;28;7200;-77
2023/01/20 13:19:22;;;;;;;;;;;;;;;6.42;58.69;100330.31;5031360;28;8489;-78
2023/01/20 13:21:50;;;;;;;;;;;;;;;6.46;58.80;100333.94;5001648;28;7510;-78
2023/01/20 13:24:28;;;;;;;;;;;;;;;6.46;58.45;100332.25;5036234;28;6976;-78
2023/01/20 13:26:56;;;;;;;;;;;;;;;6.45;58.23;100324.53;5031362;28;6831;-76
2023/01/20 13:30:03;;;;;;;;;;;;;;;6.45;58.49;100332.19;4998218;28;6804;-76
2023/01/20 13:32:44;;;;;;;;;;;;;;;6.42;58.57;100331.97;4999760;28;7457;-77
2023/01/20 13:35:21;;;;;;;;;;;;;;;6.38;58.37;100329.22;5010321;28;7849;-77
2023/01/20 13:37:52;;;;;;;;;;;;;;;6.37;58.27;100336.75;4997863;28;6787;-77
2023/01/20 13:40:35;;;;;;;;;;;;;;;6.36;58.42;100340.09;5004030;28;6792;-76
2023/01/20 13:43:24;;;;;;;;;;;;;;;6.34;58.43;100337.47;5000993;28;7134;-76
2023/01/20 13:46:01;;;;;;;;;;;;;;;6.36;58.38;100337.53;4998749;28;6796;-76